sensor_id;sensor_type;location;lat;lon;timestamp;P1;P2;P0
45440;PMS5003;31189;38.790;-77.084;2022-11-20T00:02:22;45;29;
45440;PMS5003;31189;38.790;-77.084;2022-11-20T00:04:50;23;22;
45440;PMS5003;31189;38.790;-77.084;2022-11-20T00:07:17;24;21;
45440;PMS5003;31189;38.790;-77.084;2022-11-20T00:09:45;30;23;
45440;PMS5003;31189;38.790;-77.084;2022-11-20T00:12:13;30;24;
45440;PMS5003;31189;38.790;-77.084;2022-11-20T00:14:41;45;23;
45440;PMS5003;31189;38.790;-77.084;2022-11-20T00:17:08;31;24;
45440;PMS5003;31189;38.790;-77.084;2022-11-20T00:19:36;31;29;
45440;PMS5003;31189;38.790;-77.084;2022-11-20T00:22:03;28;24;
45440;PMS5003;31189;38.790;-77.084;2022-11-20T00:24:31;33;30;
45440;PMS5003;31189;38.790;-77.084;2022-11-20T00:26:59;27;26;
45440;PMS5003;31189;38.790;-77.084;2022-11-20T00:29:27;31;26;
45440;PMS5003;31189;38.790;-77.084;2022-11-20T00:31:55;30;22;
45440;PMS5003;31189;38.790;-77.084;2022-11-20T00:34:24;40;31;
45440;PMS5003;31189;38.790;-77.084;2022-11-20T00:36:51;36;26;
45440;PMS5003;31189;38.790;-77.084;2022-11-20T00:39:19;33;26;
45440;PMS5003;31189;38.790;-77.084;2022-11-20T00:41:46;44;28;
45440;PMS5003;31189;38.790;-77.084;2022-11-20T00:44:14;32;25;
45440;PMS5003;31189;38.790;-77.084;2022-11-20T00:46:42;34;26;
45440;PMS5003;31189;38.790;-77.084;2022-11-20T00:49:10;32;24;
45440;PMS5003;31189;38.790;-77.084;2022-11-20T00:51:38;40;24;
45440;PMS5003;31189;38.790;-77.084;2022-11-20T00:54:06;28;22;
45440;PMS5003;31189;38.790;-77.084;2022-11-20T00:56:34;22;21;
45440;PMS5003;31189;38.790;-77.084;2022-11-20T00:59:03;34;24;
45440;PMS5003;31189;38.790;-77.084;2022-11-20T01:01:32;28;20;
45440;PMS5003;31189;38.790;-77.084;2022-11-20T01:04:01;30;22;
45440;PMS5003;31189;38.790;-77.084;2022-11-20T01:06:35;29;24;
45440;PMS5003;31189;38.790;-77.084;2022-11-20T01:09:12;25;21;
45440;PMS5003;31189;38.790;-77.084;2022-11-20T01:11:46;32;21;
45440;PMS5003;31189;38.790;-77.084;2022-11-20T01:14:20;23;20;
45440;PMS5003;31189;38.790;-77.084;2022-11-20T01:16:57;20;19;
45440;PMS5003;31189;38.790;-77.084;2022-11-20T01:19:31;20;20;
45440;PMS5003;31189;38.790;-77.084;2022-11-20T01:22:04;22;18;
45440;PMS5003;31189;38.790;-77.084;2022-11-20T01:24:37;31;19;
45440;PMS5003;31189;38.790;-77.084;2022-11-20T01:27:15;28;23;
45440;PMS5003;31189;38.790;-77.084;2022-11-20T01:29:48;28;25;
45440;PMS5003;31189;38.790;-77.084;2022-11-20T01:32:21;26;21;
45440;PMS5003;31189;38.790;-77.084;2022-11-20T01:34:53;29;25;
45440;PMS5003;31189;38.790;-77.084;2022-11-20T01:37:32;23;22;
45440;PMS5003;31189;38.790;-77.084;2022-11-20T01:40:05;25;22;
45440;PMS5003;31189;38.790;-77.084;2022-11-20T01:42:34;26;20;
45440;PMS5003;31189;38.790;-77.084;2022-11-20T01:45:42;28;19;
45440;PMS5003;31189;38.790;-77.084;2022-11-20T01:48:36;43;33;
45440;PMS5003;31189;38.790;-77.084;2022-11-20T01:51:16;25;22;
45440;PMS5003;31189;38.790;-77.084;2022-11-20T01:53:48;38;23;
45440;PMS5003;31189;38.790;-77.084;2022-11-20T01:56:18;36;29;
45440;PMS5003;31189;38.790;-77.084;2022-11-20T01:58:47;33;24;
45440;PMS5003;31189;38.790;-77.084;2022-11-20T02:01:19;36;23;
45440;PMS5003;31189;38.790;-77.084;2022-11-20T02:03:48;27;24;
45440;PMS5003;31189;38.790;-77.084;2022-11-20T02:06:19;42;29;
45440;PMS5003;31189;38.790;-77.084;2022-11-20T02:08:49;43;27;
45440;PMS5003;31189;38.790;-77.084;2022-11-20T02:11:19;54;32;
45440;PMS5003;31189;38.790;-77.084;2022-11-20T02:13:47;45;38;
45440;PMS5003;31189;38.790;-77.084;2022-11-20T02:16:16;52;43;
45440;PMS5003;31189;38.790;-77.084;2022-11-20T02:18:49;60;48;
45440;PMS5003;31189;38.790;-77.084;2022-11-20T02:21:20;64;50;
45440;PMS5003;31189;38.790;-77.084;2022-11-20T02:24:00;55;49;
45440;PMS5003;31189;38.790;-77.084;2022-11-20T02:26:30;54;40;
45440;PMS5003;31189;38.790;-77.084;2022-11-20T02:29:02;52;41;
45440;PMS5003;31189;38.790;-77.084;2022-11-20T02:31:35;37;32;
45440;PMS5003;31189;38.790;-77.084;2022-11-20T02:34:04;48;35;
45440;PMS5003;31189;38.790;-77.084;2022-11-20T02:36:32;63;46;
45440;PMS5003;31189;38.790;-77.084;2022-11-20T02:39:00;50;36;
45440;PMS5003;31189;38.790;-77.084;2022-11-20T02:41:32;41;31;
45440;PMS5003;31189;38.790;-77.084;2022-11-20T02:44:01;31;28;
45440;PMS5003;31189;38.790;-77.084;2022-11-20T02:46:30;46;32;
45440;PMS5003;31189;38.790;-77.084;2022-11-20T02:48:59;29;22;
45440;PMS5003;31189;38.790;-77.084;2022-11-20T02:51:28;41;27;
45440;PMS5003;31189;38.790;-77.084;2022-11-20T02:53:57;27;24;
45440;PMS5003;31189;38.790;-77.084;2022-11-20T02:56:25;26;23;
45440;PMS5003;31189;38.790;-77.084;2022-11-20T02:58:53;24;24;
45440;PMS5003;31189;38.790;-77.084;2022-11-20T03:01:20;26;23;
45440;PMS5003;31189;38.790;-77.084;2022-11-20T03:03:49;24;23;
45440;PMS5003;31189;38.790;-77.084;2022-11-20T03:06:23;38;21;
45440;PMS5003;31189;38.790;-77.084;2022-11-20T03:08:50;31;28;
45440;PMS5003;31189;38.790;-77.084;2022-11-20T03:11:24;40;26;
45440;PMS5003;31189;38.790;-77.084;2022-11-20T03:14:02;34;26;
45440;PMS5003;31189;38.790;-77.084;2022-11-20T03:16:35;29;24;
45440;PMS5003;31189;38.790;-77.084;2022-11-20T03:19:09;28;24;
45440;PMS5003;31189;38.790;-77.084;2022-11-20T03:21:38;41;25;
45440;PMS5003;31189;38.790;-77.084;2022-11-20T03:24:07;36;25;
45440;PMS5003;31189;38.790;-77.084;2022-11-20T03:26:35;33;22;
45440;PMS5003;31189;38.790;-77.084;2022-11-20T03:29:03;25;23;
45440;PMS5003;31189;38.790;-77.084;2022-11-20T03:31:33;24;22;
45440;PMS5003;31189;38.790;-77.084;2022-11-20T03:34:03;27;24;
45440;PMS5003;31189;38.790;-77.084;2022-11-20T03:36:32;29;20;
45440;PMS5003;31189;38.790;-77.084;2022-11-20T03:38:59;29;22;
45440;PMS5003;31189;38.790;-77.084;2022-11-20T03:41:28;29;20;
45440;PMS5003;31189;38.790;-77.084;2022-11-20T03:43:59;35;21;
45440;PMS5003;31189;38.790;-77.084;2022-11-20T03:46:29;32;23;
45440;PMS5003;31189;38.790;-77.084;2022-11-20T03:48:57;27;23;
45440;PMS5003;31189;38.790;-77.084;2022-11-20T03:51:26;32;24;
45440;PMS5003;31189;38.790;-77.084;2022-11-20T03:53:56;25;22;
45440;PMS5003;31189;38.790;-77.084;2022-11-20T03:56:26;20;19;
45440;PMS5003;31189;38.790;-77.084;2022-11-20T03:58:56;27;22;
45440;PMS5003;31189;38.790;-77.084;2022-11-20T04:01:25;18;17;
45440;PMS5003;31189;38.790;-77.084;2022-11-20T04:03:56;24;20;
45440;PMS5003;31189;38.790;-77.084;2022-11-20T04:06:29;24;17;
45440;PMS5003;31189;38.790;-77.084;2022-11-20T04:09:00;24;17;
45440;PMS5003;31189;38.790;-77.084;2022-11-20T04:11:29;22;19;
45440;PMS5003;31189;38.790;-77.084;2022-11-20T04:13:58;23;19;
45440;PMS5003;31189;38.790;-77.084;2022-11-20T04:16:29;26;24;
45440;PMS5003;31189;38.790;-77.084;2022-11-20T04:18:59;27;23;
45440;PMS5003;31189;38.790;-77.084;2022-11-20T04:21:28;47;32;
45440;PMS5003;31189;38.790;-77.084;2022-11-20T04:23:56;33;28;
45440;PMS5003;31189;38.790;-77.084;2022-11-20T04:26:26;37;23;
45440;PMS5003;31189;38.790;-77.084;2022-11-20T04:28:56;38;29;
45440;PMS5003;31189;38.790;-77.084;2022-11-20T04:31:25;44;27;
45440;PMS5003;31189;38.790;-77.084;2022-11-20T04:33:55;30;25;
45440;PMS5003;31189;38.790;-77.084;2022-11-20T04:36:26;25;23;
45440;PMS5003;31189;38.790;-77.084;2022-11-20T04:38:55;35;27;
45440;PMS5003;31189;38.790;-77.084;2022-11-20T04:41:25;29;24;
45440;PMS5003;31189;38.790;-77.084;2022-11-20T04:43:55;28;21;
45440;PMS5003;31189;38.790;-77.084;2022-11-20T04:46:25;30;24;
45440;PMS5003;31189;38.790;-77.084;2022-11-20T04:48:54;41;24;
45440;PMS5003;31189;38.790;-77.084;2022-11-20T04:51:23;38;27;
45440;PMS5003;31189;38.790;-77.084;2022-11-20T04:53:51;33;25;
45440;PMS5003;31189;38.790;-77.084;2022-11-20T04:56:19;35;24;
45440;PMS5003;31189;38.790;-77.084;2022-11-20T04:58:47;28;23;
45440;PMS5003;31189;38.790;-77.084;2022-11-20T05:01:16;38;25;
45440;PMS5003;31189;38.790;-77.084;2022-11-20T05:03:45;24;24;
45440;PMS5003;31189;38.790;-77.084;2022-11-20T05:06:17;26;20;
45440;PMS5003;31189;38.790;-77.084;2022-11-20T05:08:45;27;24;
45440;PMS5003;31189;38.790;-77.084;2022-11-20T05:11:14;40;27;
45440;PMS5003;31189;38.790;-77.084;2022-11-20T05:13:44;33;22;
45440;PMS5003;31189;38.790;-77.084;2022-11-20T05:16:13;25;20;
45440;PMS5003;31189;38.790;-77.084;2022-11-20T05:18:42;33;19;
45440;PMS5003;31189;38.790;-77.084;2022-11-20T05:21:11;32;21;
45440;PMS5003;31189;38.790;-77.084;2022-11-20T05:23:39;26;23;
45440;PMS5003;31189;38.790;-77.084;2022-11-20T05:26:08;23;21;
45440;PMS5003;31189;38.790;-77.084;2022-11-20T05:28:41;39;20;
45440;PMS5003;31189;38.790;-77.084;2022-11-20T05:31:11;33;20;
45440;PMS5003;31189;38.790;-77.084;2022-11-20T05:33:45;26;23;
45440;PMS5003;31189;38.790;-77.084;2022-11-20T05:36:24;23;20;
45440;PMS5003;31189;38.790;-77.084;2022-11-20T05:38:57;27;24;
45440;PMS5003;31189;38.790;-77.084;2022-11-20T05:41:29;26;24;
45440;PMS5003;31189;38.790;-77.084;2022-11-20T05:44:04;29;20;
45440;PMS5003;31189;38.790;-77.084;2022-11-20T05:46:32;27;21;
45440;PMS5003;31189;38.790;-77.084;2022-11-20T05:49:00;34;19;
45440;PMS5003;31189;38.790;-77.084;2022-11-20T05:51:33;29;21;
45440;PMS5003;31189;38.790;-77.084;2022-11-20T05:54:01;25;21;
45440;PMS5003;31189;38.790;-77.084;2022-11-20T05:56:29;24;19;
45440;PMS5003;31189;38.790;-77.084;2022-11-20T05:59:02;24;20;
45440;PMS5003;31189;38.790;-77.084;2022-11-20T06:01:30;27;17;
45440;PMS5003;31189;38.790;-77.084;2022-11-20T06:03:58;30;20;
45440;PMS5003;31189;38.790;-77.084;2022-11-20T06:06:25;20;19;
45440;PMS5003;31189;38.790;-77.084;2022-11-20T06:08:54;22;19;
45440;PMS5003;31189;38.790;-77.084;2022-11-20T06:11:22;20;16;
45440;PMS5003;31189;38.790;-77.084;2022-11-20T06:13:49;27;17;
45440;PMS5003;31189;38.790;-77.084;2022-11-20T06:16:17;17;16;
45440;PMS5003;31189;38.790;-77.084;2022-11-20T06:18:46;20;20;
45440;PMS5003;31189;38.790;-77.084;2022-11-20T06:21:15;35;21;
45440;PMS5003;31189;38.790;-77.084;2022-11-20T06:23:45;24;22;
45440;PMS5003;31189;38.790;-77.084;2022-11-20T06:26:15;26;21;
45440;PMS5003;31189;38.790;-77.084;2022-11-20T06:28:44;20;17;
45440;PMS5003;31189;38.790;-77.084;2022-11-20T06:31:13;35;21;
45440;PMS5003;31189;38.790;-77.084;2022-11-20T06:33:42;24;19;
45440;PMS5003;31189;38.790;-77.084;2022-11-20T06:36:11;36;20;
45440;PMS5003;31189;38.790;-77.084;2022-11-20T06:38:41;17;17;
45440;PMS5003;31189;38.790;-77.084;2022-11-20T06:41:11;30;17;
45440;PMS5003;31189;38.790;-77.084;2022-11-20T06:43:41;31;18;
45440;PMS5003;31189;38.790;-77.084;2022-11-20T06:46:10;23;14;
45440;PMS5003;31189;38.790;-77.084;2022-11-20T06:48:39;25;10;
45440;PMS5003;31189;38.790;-77.084;2022-11-20T06:51:07;18;12;
45440;PMS5003;31189;38.790;-77.084;2022-11-20T06:53:36;13;10;
45440;PMS5003;31189;38.790;-77.084;2022-11-20T06:56:04;10;9;
45440;PMS5003;31189;38.790;-77.084;2022-11-20T06:58:33;14;9;
45440;PMS5003;31189;38.790;-77.084;2022-11-20T07:01:03;12;10;
45440;PMS5003;31189;38.790;-77.084;2022-11-20T07:03:33;10;10;
45440;PMS5003;31189;38.790;-77.084;2022-11-20T07:06:01;14;9;
45440;PMS5003;31189;38.790;-77.084;2022-11-20T07:08:30;7;7;
45440;PMS5003;31189;38.790;-77.084;2022-11-20T07:10:58;10;6;
45440;PMS5003;31189;38.790;-77.084;2022-11-20T07:13:27;8;7;
45440;PMS5003;31189;38.790;-77.084;2022-11-20T07:15:59;5;5;
45440;PMS5003;31189;38.790;-77.084;2022-11-20T07:18:28;7;4;
45440;PMS5003;31189;38.790;-77.084;2022-11-20T07:21:00;5;5;
45440;PMS5003;31189;38.790;-77.084;2022-11-20T07:23:28;8;5;
45440;PMS5003;31189;38.790;-77.084;2022-11-20T07:25:56;7;5;
45440;PMS5003;31189;38.790;-77.084;2022-11-20T07:28:24;4;4;
45440;PMS5003;31189;38.790;-77.084;2022-11-20T07:30:52;5;3;
45440;PMS5003;31189;38.790;-77.084;2022-11-20T07:33:20;5;5;
45440;PMS5003;31189;38.790;-77.084;2022-11-20T07:35:48;6;5;
45440;PMS5003;31189;38.790;-77.084;2022-11-20T07:38:15;6;6;
45440;PMS5003;31189;38.790;-77.084;2022-11-20T07:40:43;8;4;
45440;PMS5003;31189;38.790;-77.084;2022-11-20T07:43:10;7;4;
45440;PMS5003;31189;38.790;-77.084;2022-11-20T07:45:38;4;4;
45440;PMS5003;31189;38.790;-77.084;2022-11-20T07:48:05;6;4;
45440;PMS5003;31189;38.790;-77.084;2022-11-20T07:50:33;8;5;
45440;PMS5003;31189;38.790;-77.084;2022-11-20T07:53:01;4;4;
45440;PMS5003;31189;38.790;-77.084;2022-11-20T07:55:29;7;5;
45440;PMS5003;31189;38.790;-77.084;2022-11-20T07:57:58;6;5;
45440;PMS5003;31189;38.790;-77.084;2022-11-20T08:00:25;6;4;
45440;PMS5003;31189;38.790;-77.084;2022-11-20T08:02:54;7;5;
45440;PMS5003;31189;38.790;-77.084;2022-11-20T08:05:22;5;2;
45440;PMS5003;31189;38.790;-77.084;2022-11-20T08:07:51;4;4;
45440;PMS5003;31189;38.790;-77.084;2022-11-20T08:10:18;8;3;
45440;PMS5003;31189;38.790;-77.084;2022-11-20T08:12:46;4;3;
45440;PMS5003;31189;38.790;-77.084;2022-11-20T08:15:15;4;4;
45440;PMS5003;31189;38.790;-77.084;2022-11-20T08:17:43;5;5;
45440;PMS5003;31189;38.790;-77.084;2022-11-20T08:20:11;4;3;
45440;PMS5003;31189;38.790;-77.084;2022-11-20T08:22:39;4;4;
45440;PMS5003;31189;38.790;-77.084;2022-11-20T08:25:07;3;3;
45440;PMS5003;31189;38.790;-77.084;2022-11-20T08:27:35;3;3;
45440;PMS5003;31189;38.790;-77.084;2022-11-20T08:30:02;4;3;
45440;PMS5003;31189;38.790;-77.084;2022-11-20T08:32:30;3;3;
45440;PMS5003;31189;38.790;-77.084;2022-11-20T08:34:58;3;3;
45440;PMS5003;31189;38.790;-77.084;2022-11-20T08:37:25;2;2;
45440;PMS5003;31189;38.790;-77.084;2022-11-20T08:39:53;5;4;
45440;PMS5003;31189;38.790;-77.084;2022-11-20T08:42:20;6;5;
45440;PMS5003;31189;38.790;-77.084;2022-11-20T08:44:48;4;3;
45440;PMS5003;31189;38.790;-77.084;2022-11-20T08:47:15;5;3;
45440;PMS5003;31189;38.790;-77.084;2022-11-20T08:49:43;2;2;
45440;PMS5003;31189;38.790;-77.084;2022-11-20T08:52:10;3;3;
45440;PMS5003;31189;38.790;-77.084;2022-11-20T08:54:38;5;3;
45440;PMS5003;31189;38.790;-77.084;2022-11-20T08:57:05;3;3;
45440;PMS5003;31189;38.790;-77.084;2022-11-20T08:59:32;4;4;
45440;PMS5003;31189;38.790;-77.084;2022-11-20T09:02:00;9;5;
45440;PMS5003;31189;38.790;-77.084;2022-11-20T09:04:27;3;3;
45440;PMS5003;31189;38.790;-77.084;2022-11-20T09:06:56;4;4;
45440;PMS5003;31189;38.790;-77.084;2022-11-20T09:09:26;7;4;
45440;PMS5003;31189;38.790;-77.084;2022-11-20T09:11:54;5;4;
45440;PMS5003;31189;38.790;-77.084;2022-11-20T09:14:21;7;5;
45440;PMS5003;31189;38.790;-77.084;2022-11-20T09:16:49;4;4;
45440;PMS5003;31189;38.790;-77.084;2022-11-20T09:19:16;7;5;
45440;PMS5003;31189;38.790;-77.084;2022-11-20T09:21:44;5;5;
45440;PMS5003;31189;38.790;-77.084;2022-11-20T09:24:11;6;6;
45440;PMS5003;31189;38.790;-77.084;2022-11-20T09:26:39;6;4;
45440;PMS5003;31189;38.790;-77.084;2022-11-20T09:29:07;6;6;
45440;PMS5003;31189;38.790;-77.084;2022-11-20T09:31:35;5;5;
45440;PMS5003;31189;38.790;-77.084;2022-11-20T09:34:03;5;5;
45440;PMS5003;31189;38.790;-77.084;2022-11-20T09:36:31;7;6;
45440;PMS5003;31189;38.790;-77.084;2022-11-20T09:38:59;6;6;
45440;PMS5003;31189;38.790;-77.084;2022-11-20T09:41:33;6;6;
45440;PMS5003;31189;38.790;-77.084;2022-11-20T09:44:16;7;6;
45440;PMS5003;31189;38.790;-77.084;2022-11-20T09:46:54;9;6;
45440;PMS5003;31189;38.790;-77.084;2022-11-20T09:49:30;6;5;
45440;PMS5003;31189;38.790;-77.084;2022-11-20T09:52:09;6;6;
45440;PMS5003;31189;38.790;-77.084;2022-11-20T09:54:47;8;6;
45440;PMS5003;31189;38.790;-77.084;2022-11-20T09:57:18;6;6;
45440;PMS5003;31189;38.790;-77.084;2022-11-20T09:59:50;8;6;
45440;PMS5003;31189;38.790;-77.084;2022-11-20T10:02:25;8;5;
45440;PMS5003;31189;38.790;-77.084;2022-11-20T10:04:57;7;5;
45440;PMS5003;31189;38.790;-77.084;2022-11-20T10:07:30;7;6;
45440;PMS5003;31189;38.790;-77.084;2022-11-20T10:10:01;5;5;
45440;PMS5003;31189;38.790;-77.084;2022-11-20T10:12:33;6;6;
45440;PMS5003;31189;38.790;-77.084;2022-11-20T10:15:22;7;6;
45440;PMS5003;31189;38.790;-77.084;2022-11-20T10:18:07;9;6;
45440;PMS5003;31189;38.790;-77.084;2022-11-20T10:20:47;7;6;
45440;PMS5003;31189;38.790;-77.084;2022-11-20T10:23:28;5;5;
45440;PMS5003;31189;38.790;-77.084;2022-11-20T10:26:16;5;5;
45440;PMS5003;31189;38.790;-77.084;2022-11-20T10:28:50;7;6;
45440;PMS5003;31189;38.790;-77.084;2022-11-20T10:31:31;6;5;
45440;PMS5003;31189;38.790;-77.084;2022-11-20T10:34:03;8;7;
45440;PMS5003;31189;38.790;-77.084;2022-11-20T10:36:40;7;6;
45440;PMS5003;31189;38.790;-77.084;2022-11-20T10:39:16;9;8;
45440;PMS5003;31189;38.790;-77.084;2022-11-20T10:41:50;12;7;
45440;PMS5003;31189;38.790;-77.084;2022-11-20T10:44:20;6;6;
45440;PMS5003;31189;38.790;-77.084;2022-11-20T10:46:49;6;6;
45440;PMS5003;31189;38.790;-77.084;2022-11-20T10:49:17;9;7;
45440;PMS5003;31189;38.790;-77.084;2022-11-20T10:51:57;8;7;
45440;PMS5003;31189;38.790;-77.084;2022-11-20T10:54:32;8;6;
45440;PMS5003;31189;38.790;-77.084;2022-11-20T10:57:10;7;7;
45440;PMS5003;31189;38.790;-77.084;2022-11-20T11:00:04;5;5;
45440;PMS5003;31189;38.790;-77.084;2022-11-20T11:02:39;6;6;
45440;PMS5003;31189;38.790;-77.084;2022-11-20T11:05:14;9;6;
45440;PMS5003;31189;38.790;-77.084;2022-11-20T11:07:50;7;6;
45440;PMS5003;31189;38.790;-77.084;2022-11-20T11:10:22;8;6;
45440;PMS5003;31189;38.790;-77.084;2022-11-20T11:12:55;5;5;
45440;PMS5003;31189;38.790;-77.084;2022-11-20T11:15:26;5;5;
45440;PMS5003;31189;38.790;-77.084;2022-11-20T11:17:55;8;6;
45440;PMS5003;31189;38.790;-77.084;2022-11-20T11:20:23;7;7;
45440;PMS5003;31189;38.790;-77.084;2022-11-20T11:22:53;6;5;
45440;PMS5003;31189;38.790;-77.084;2022-11-20T11:25:25;5;5;
45440;PMS5003;31189;38.790;-77.084;2022-11-20T11:27:57;5;5;
45440;PMS5003;31189;38.790;-77.084;2022-11-20T11:30:27;7;7;
45440;PMS5003;31189;38.790;-77.084;2022-11-20T11:33:04;11;5;
45440;PMS5003;31189;38.790;-77.084;2022-11-20T11:35:38;5;5;
45440;PMS5003;31189;38.790;-77.084;2022-11-20T11:38:12;9;7;
45440;PMS5003;31189;38.790;-77.084;2022-11-20T11:40:43;8;6;
45440;PMS5003;31189;38.790;-77.084;2022-11-20T11:43:17;7;6;
45440;PMS5003;31189;38.790;-77.084;2022-11-20T11:45:51;10;7;
45440;PMS5003;31189;38.790;-77.084;2022-11-20T11:48:21;11;8;
45440;PMS5003;31189;38.790;-77.084;2022-11-20T11:50:49;6;6;
45440;PMS5003;31189;38.790;-77.084;2022-11-20T11:53:18;8;7;
45440;PMS5003;31189;38.790;-77.084;2022-11-20T11:55:49;11;10;
45440;PMS5003;31189;38.790;-77.084;2022-11-20T11:58:33;7;6;
45440;PMS5003;31189;38.790;-77.084;2022-11-20T12:01:14;9;6;
45440;PMS5003;31189;38.790;-77.084;2022-11-20T12:03:52;10;10;
45440;PMS5003;31189;38.790;-77.084;2022-11-20T12:06:26;9;9;
45440;PMS5003;31189;38.790;-77.084;2022-11-20T12:08:59;13;7;
45440;PMS5003;31189;38.790;-77.084;2022-11-20T12:11:31;13;9;
45440;PMS5003;31189;38.790;-77.084;2022-11-20T12:14:09;9;9;
45440;PMS5003;31189;38.790;-77.084;2022-11-20T12:16:43;17;9;
45440;PMS5003;31189;38.790;-77.084;2022-11-20T12:19:11;9;9;
45440;PMS5003;31189;38.790;-77.084;2022-11-20T12:21:43;10;10;
45440;PMS5003;31189;38.790;-77.084;2022-11-20T12:24:31;7;7;
45440;PMS5003;31189;38.790;-77.084;2022-11-20T12:27:14;12;10;
45440;PMS5003;31189;38.790;-77.084;2022-11-20T12:30:00;10;10;
45440;PMS5003;31189;38.790;-77.084;2022-11-20T12:32:38;7;7;
45440;PMS5003;31189;38.790;-77.084;2022-11-20T12:33:19;7;7;
45440;PMS5003;31189;38.790;-77.084;2022-11-20T12:36:16;9;7;
45440;PMS5003;31189;38.790;-77.084;2022-11-20T12:39:05;9;6;
45440;PMS5003;31189;38.790;-77.084;2022-11-20T12:41:49;11;9;
45440;PMS5003;31189;38.790;-77.084;2022-11-20T12:44:33;9;9;
45440;PMS5003;31189;38.790;-77.084;2022-11-20T12:47:16;6;6;
45440;PMS5003;31189;38.790;-77.084;2022-11-20T12:49:52;12;9;
45440;PMS5003;31189;38.790;-77.084;2022-11-20T12:52:29;9;7;
45440;PMS5003;31189;38.790;-77.084;2022-11-20T12:55:15;5;5;
45440;PMS5003;31189;38.790;-77.084;2022-11-20T12:57:54;6;6;
45440;PMS5003;31189;38.790;-77.084;2022-11-20T13:00:28;13;8;
45440;PMS5003;31189;38.790;-77.084;2022-11-20T13:03:06;7;7;
45440;PMS5003;31189;38.790;-77.084;2022-11-20T13:05:48;6;6;
45440;PMS5003;31189;38.790;-77.084;2022-11-20T13:08:23;7;5;
45440;PMS5003;31189;38.790;-77.084;2022-11-20T13:10:55;6;6;
45440;PMS5003;31189;38.790;-77.084;2022-11-20T13:13:31;10;8;
45440;PMS5003;31189;38.790;-77.084;2022-11-20T13:16:10;10;6;
45440;PMS5003;31189;38.790;-77.084;2022-11-20T13:18:44;11;10;
45440;PMS5003;31189;38.790;-77.084;2022-11-20T13:21:14;7;7;
45440;PMS5003;31189;38.790;-77.084;2022-11-20T13:23:44;10;10;
45440;PMS5003;31189;38.790;-77.084;2022-11-20T13:26:15;6;5;
45440;PMS5003;31189;38.790;-77.084;2022-11-20T13:28:45;7;6;
45440;PMS5003;31189;38.790;-77.084;2022-11-20T13:31:29;9;6;
45440;PMS5003;31189;38.790;-77.084;2022-11-20T13:34:00;8;6;
45440;PMS5003;31189;38.790;-77.084;2022-11-20T13:36:30;6;6;
45440;PMS5003;31189;38.790;-77.084;2022-11-20T13:38:58;10;6;
45440;PMS5003;31189;38.790;-77.084;2022-11-20T13:41:28;5;5;
45440;PMS5003;31189;38.790;-77.084;2022-11-20T13:43:59;7;7;
45440;PMS5003;31189;38.790;-77.084;2022-11-20T13:46:36;7;7;
45440;PMS5003;31189;38.790;-77.084;2022-11-20T13:49:07;7;5;
45440;PMS5003;31189;38.790;-77.084;2022-11-20T13:51:40;10;9;
45440;PMS5003;31189;38.790;-77.084;2022-11-20T13:54:16;10;7;
45440;PMS5003;31189;38.790;-77.084;2022-11-20T13:57:06;11;9;
45440;PMS5003;31189;38.790;-77.084;2022-11-20T13:59:53;6;6;
45440;PMS5003;31189;38.790;-77.084;2022-11-20T14:02:27;6;6;
45440;PMS5003;31189;38.790;-77.084;2022-11-20T14:04:57;6;6;
45440;PMS5003;31189;38.790;-77.084;2022-11-20T14:07:32;5;5;
45440;PMS5003;31189;38.790;-77.084;2022-11-20T14:10:03;11;6;
45440;PMS5003;31189;38.790;-77.084;2022-11-20T14:12:33;10;7;
45440;PMS5003;31189;38.790;-77.084;2022-11-20T14:15:01;10;5;
45440;PMS5003;31189;38.790;-77.084;2022-11-20T14:17:30;10;9;
45440;PMS5003;31189;38.790;-77.084;2022-11-20T14:20:00;9;6;
45440;PMS5003;31189;38.790;-77.084;2022-11-20T14:22:31;7;7;
45440;PMS5003;31189;38.790;-77.084;2022-11-20T14:25:04;7;5;
45440;PMS5003;31189;38.790;-77.084;2022-11-20T14:27:34;9;7;
45440;PMS5003;31189;38.790;-77.084;2022-11-20T14:30:04;9;6;
45440;PMS5003;31189;38.790;-77.084;2022-11-20T14:32:33;7;5;
45440;PMS5003;31189;38.790;-77.084;2022-11-20T14:35:06;6;6;
45440;PMS5003;31189;38.790;-77.084;2022-11-20T14:37:37;6;6;
45440;PMS5003;31189;38.790;-77.084;2022-11-20T14:40:21;8;6;
45440;PMS5003;31189;38.790;-77.084;2022-11-20T14:42:52;8;6;
45440;PMS5003;31189;38.790;-77.084;2022-11-20T14:45:20;6;4;
45440;PMS5003;31189;38.790;-77.084;2022-11-20T14:47:49;10;6;
45440;PMS5003;31189;38.790;-77.084;2022-11-20T14:50:19;6;6;
45440;PMS5003;31189;38.790;-77.084;2022-11-20T14:52:50;6;5;
45440;PMS5003;31189;38.790;-77.084;2022-11-20T14:55:29;8;5;
45440;PMS5003;31189;38.790;-77.084;2022-11-20T14:57:59;6;5;
45440;PMS5003;31189;38.790;-77.084;2022-11-20T15:00:29;8;6;
45440;PMS5003;31189;38.790;-77.084;2022-11-20T15:02:59;5;5;
45440;PMS5003;31189;38.790;-77.084;2022-11-20T15:05:46;4;4;
45440;PMS5003;31189;38.790;-77.084;2022-11-20T15:08:16;6;5;
45440;PMS5003;31189;38.790;-77.084;2022-11-20T15:10:45;8;6;
45440;PMS5003;31189;38.790;-77.084;2022-11-20T15:13:17;5;5;
45440;PMS5003;31189;38.790;-77.084;2022-11-20T15:15:58;6;5;
45440;PMS5003;31189;38.790;-77.084;2022-11-20T15:18:28;6;6;
45440;PMS5003;31189;38.790;-77.084;2022-11-20T15:21:08;5;5;
45440;PMS5003;31189;38.790;-77.084;2022-11-20T15:23:38;9;6;
45440;PMS5003;31189;38.790;-77.084;2022-11-20T15:26:12;9;7;
45440;PMS5003;31189;38.790;-77.084;2022-11-20T15:28:44;5;5;
45440;PMS5003;31189;38.790;-77.084;2022-11-20T15:31:15;6;6;
45440;PMS5003;31189;38.790;-77.084;2022-11-20T15:33:49;5;5;
45440;PMS5003;31189;38.790;-77.084;2022-11-20T15:36:17;7;7;
45440;PMS5003;31189;38.790;-77.084;2022-11-20T15:38:50;5;5;
45440;PMS5003;31189;38.790;-77.084;2022-11-20T15:41:23;7;6;
45440;PMS5003;31189;38.790;-77.084;2022-11-20T15:44:02;9;7;
45440;PMS5003;31189;38.790;-77.084;2022-11-20T15:46:36;17;5;
45440;PMS5003;31189;38.790;-77.084;2022-11-20T15:49:09;6;6;
45440;PMS5003;31189;38.790;-77.084;2022-11-20T15:51:46;7;6;
45440;PMS5003;31189;38.790;-77.084;2022-11-20T15:54:21;7;6;
45440;PMS5003;31189;38.790;-77.084;2022-11-20T15:56:50;6;6;
45440;PMS5003;31189;38.790;-77.084;2022-11-20T15:59:18;7;7;
45440;PMS5003;31189;38.790;-77.084;2022-11-20T16:01:46;10;6;
45440;PMS5003;31189;38.790;-77.084;2022-11-20T16:04:19;8;6;
45440;PMS5003;31189;38.790;-77.084;2022-11-20T16:06:46;9;7;
45440;PMS5003;31189;38.790;-77.084;2022-11-20T16:09:14;11;7;
45440;PMS5003;31189;38.790;-77.084;2022-11-20T16:11:53;8;6;
45440;PMS5003;31189;38.790;-77.084;2022-11-20T16:14:20;10;8;
45440;PMS5003;31189;38.790;-77.084;2022-11-20T16:16:53;7;7;
45440;PMS5003;31189;38.790;-77.084;2022-11-20T16:19:25;9;8;
45440;PMS5003;31189;38.790;-77.084;2022-11-20T16:21:53;8;6;
45440;PMS5003;31189;38.790;-77.084;2022-11-20T16:24:26;7;6;
45440;PMS5003;31189;38.790;-77.084;2022-11-20T16:26:59;8;7;
45440;PMS5003;31189;38.790;-77.084;2022-11-20T16:29:26;7;7;